sensor_id;sensor_type;location;lat;lon;timestamp;pressure;altitude;pressure_sealevel;temperature;humidity
24762;BME280;12865;51.934;10.330;2023-08-01T00:00:40;97616.09;;;16.88;100.00
24762;BME280;12865;51.934;10.330;2023-08-01T00:03:26;97618.47;;;16.96;100.00
24762;BME280;12865;51.934;10.330;2023-08-01T00:06:12;97598.59;;;16.97;100.00
24762;BME280;12865;51.934;10.330;2023-08-01T00:08:57;97576.63;;;17.00;100.00
24762;BME280;12865;51.934;10.330;2023-08-01T00:11:43;97561.94;;;16.96;100.00
24762;BME280;12865;51.934;10.330;2023-08-01T00:14:28;97567.34;;;16.96;100.00
24762;BME280;12865;51.934;10.330;2023-08-01T00:17:14;97567.13;;;16.98;100.00
24762;BME280;12865;51.934;10.330;2023-08-01T00:20:01;97548.50;;;16.96;100.00
24762;BME280;12865;51.934;10.330;2023-08-01T00:22:47;97550.59;;;16.94;100.00
24762;BME280;12865;51.934;10.330;2023-08-01T00:25:33;97540.81;;;17.00;100.00
24762;BME280;12865;51.934;10.330;2023-08-01T00:28:19;97553.84;;;17.03;100.00
24762;BME280;12865;51.934;10.330;2023-08-01T00:31:08;97542.81;;;17.04;100.00
24762;BME280;12865;51.934;10.330;2023-08-01T00:33:57;97526.53;;;16.99;100.00
24762;BME280;12865;51.934;10.330;2023-08-01T00:36:42;97527.22;;;17.13;100.00
24762;BME280;12865;51.934;10.330;2023-08-01T00:39:28;97525.25;;;17.02;100.00
24762;BME280;12865;51.934;10.330;2023-08-01T00:42:15;97519.13;;;17.13;100.00
24762;BME280;12865;51.934;10.330;2023-08-01T00:45:00;97519.34;;;17.11;100.00
24762;BME280;12865;51.934;10.330;2023-08-01T00:47:46;97519.19;;;17.06;100.00
24762;BME280;12865;51.934;10.330;2023-08-01T00:50:32;97508.56;;;17.11;100.00
24762;BME280;12865;51.934;10.330;2023-08-01T00:53:19;97498.72;;;17.05;100.00
24762;BME280;12865;51.934;10.330;2023-08-01T00:56:05;97496.75;;;17.12;100.00
24762;BME280;12865;51.934;10.330;2023-08-01T00:58:51;97495.38;;;17.10;100.00
24762;BME280;12865;51.934;10.330;2023-08-01T01:01:36;97487.03;;;17.11;100.00
24762;BME280;12865;51.934;10.330;2023-08-01T01:04:22;97479.44;;;17.08;100.00
24762;BME280;12865;51.934;10.330;2023-08-01T01:07:08;97485.78;;;17.14;100.00
24762;BME280;12865;51.934;10.330;2023-08-01T01:09:54;97487.94;;;17.05;100.00
24762;BME280;12865;51.934;10.330;2023-08-01T01:12:39;97477.25;;;17.17;100.00
24762;BME280;12865;51.934;10.330;2023-08-01T01:15:25;97480.91;;;17.04;100.00
24762;BME280;12865;51.934;10.330;2023-08-01T01:18:11;97474.53;;;16.99;100.00
24762;BME280;12865;51.934;10.330;2023-08-01T01:20:56;97466.31;;;16.94;100.00
24762;BME280;12865;51.934;10.330;2023-08-01T01:23:43;97452.66;;;16.95;100.00
24762;BME280;12865;51.934;10.330;2023-08-01T01:26:29;97437.53;;;16.94;100.00
24762;BME280;12865;51.934;10.330;2023-08-01T01:29:16;97441.06;;;16.95;100.00
24762;BME280;12865;51.934;10.330;2023-08-01T01:32:02;97436.25;;;16.97;100.00
24762;BME280;12865;51.934;10.330;2023-08-01T01:34:48;97427.81;;;16.93;100.00
24762;BME280;12865;51.934;10.330;2023-08-01T01:37:34;97428.19;;;16.97;100.00
24762;BME280;12865;51.934;10.330;2023-08-01T01:40:20;97432.72;;;16.96;100.00
24762;BME280;12865;51.934;10.330;2023-08-01T01:43:05;97423.03;;;16.95;100.00
24762;BME280;12865;51.934;10.330;2023-08-01T01:45:51;97421.75;;;16.98;100.00
24762;BME280;12865;51.934;10.330;2023-08-01T01:48:36;97423.72;;;17.09;100.00
24762;BME280;12865;51.934;10.330;2023-08-01T01:51:22;97417.41;;;17.15;100.00
24762;BME280;12865;51.934;10.330;2023-08-01T01:54:08;97414.34;;;17.11;100.00
24762;BME280;12865;51.934;10.330;2023-08-01T01:56:53;97421.91;;;17.03;100.00
24762;BME280;12865;51.934;10.330;2023-08-01T01:59:39;97421.09;;;17.02;100.00
24762;BME280;12865;51.934;10.330;2023-08-01T02:02:25;97408.28;;;16.98;100.00
24762;BME280;12865;51.934;10.330;2023-08-01T02:05:10;97415.84;;;17.07;100.00
24762;BME280;12865;51.934;10.330;2023-08-01T02:07:56;97405.44;;;17.11;100.00
24762;BME280;12865;51.934;10.330;2023-08-01T02:10:42;97398.03;;;17.06;100.00
24762;BME280;12865;51.934;10.330;2023-08-01T02:13:28;97391.97;;;17.11;100.00
24762;BME280;12865;51.934;10.330;2023-08-01T02:16:14;97376.66;;;17.11;100.00
24762;BME280;12865;51.934;10.330;2023-08-01T02:19:00;97356.16;;;17.10;100.00
24762;BME280;12865;51.934;10.330;2023-08-01T02:21:45;97334.59;;;17.10;100.00
24762;BME280;12865;51.934;10.330;2023-08-01T02:24:31;97334.16;;;17.13;100.00
24762;BME280;12865;51.934;10.330;2023-08-01T02:27:16;97307.03;;;17.15;100.00
24762;BME280;12865;51.934;10.330;2023-08-01T02:30:02;97307.84;;;17.15;100.00
24762;BME280;12865;51.934;10.330;2023-08-01T02:32:48;97287.34;;;17.14;100.00
24762;BME280;12865;51.934;10.330;2023-08-01T02:35:34;97273.41;;;17.17;100.00
24762;BME280;12865;51.934;10.330;2023-08-01T02:38:19;97240.97;;;17.12;100.00
24762;BME280;12865;51.934;10.330;2023-08-01T02:41:05;97213.22;;;17.12;100.00
24762;BME280;12865;51.934;10.330;2023-08-01T02:43:51;97227.19;;;17.20;100.00
24762;BME280;12865;51.934;10.330;2023-08-01T02:46:36;97212.41;;;17.11;100.00
24762;BME280;12865;51.934;10.330;2023-08-01T02:49:22;97221.88;;;17.02;100.00
24762;BME280;12865;51.934;10.330;2023-08-01T02:52:08;97238.97;;;17.08;100.00
24762;BME280;12865;51.934;10.330;2023-08-01T02:54:53;97227.38;;;17.07;100.00
24762;BME280;12865;51.934;10.330;2023-08-01T02:57:39;97240.38;;;17.10;100.00
24762;BME280;12865;51.934;10.330;2023-08-01T03:00:25;97230.69;;;17.09;100.00
24762;BME280;12865;51.934;10.330;2023-08-01T03:03:11;97213.09;;;17.07;100.00
24762;BME280;12865;51.934;10.330;2023-08-01T03:05:56;97237.22;;;17.13;100.00
24762;BME280;12865;51.934;10.330;2023-08-01T03:08:42;97253.63;;;17.12;100.00
24762;BME280;12865;51.934;10.330;2023-08-01T03:11:28;97238.50;;;17.11;100.00
24762;BME280;12865;51.934;10.330;2023-08-01T03:14:13;97226.91;;;17.10;100.00
24762;BME280;12865;51.934;10.330;2023-08-01T03:16:59;97209.59;;;17.06;100.00
24762;BME280;12865;51.934;10.330;2023-08-01T03:19:45;97229.84;;;17.09;100.00
24762;BME280;12865;51.934;10.330;2023-08-01T03:22:31;97230.19;;;17.12;100.00
24762;BME280;12865;51.934;10.330;2023-08-01T03:25:17;97227.50;;;17.12;100.00
24762;BME280;12865;51.934;10.330;2023-08-01T03:28:04;97233.50;;;17.14;100.00
24762;BME280;12865;51.934;10.330;2023-08-01T03:30:49;97228.72;;;17.28;100.00
24762;BME280;12865;51.934;10.330;2023-08-01T03:33:36;97229.19;;;17.25;100.00
24762;BME280;12865;51.934;10.330;2023-08-01T03:36:21;97219.34;;;17.19;100.00
24762;BME280;12865;51.934;10.330;2023-08-01T03:39:07;97211.94;;;17.14;100.00
24762;BME280;12865;51.934;10.330;2023-08-01T03:41:55;97195.81;;;17.14;100.00
24762;BME280;12865;51.934;10.330;2023-08-01T03:44:41;97208.31;;;17.09;100.00
24762;BME280;12865;51.934;10.330;2023-08-01T03:47:26;97212.78;;;17.15;100.00
24762;BME280;12865;51.934;10.330;2023-08-01T03:50:12;97199.31;;;17.15;100.00
24762;BME280;12865;51.934;10.330;2023-08-01T03:52:59;97212.44;;;17.23;100.00
24762;BME280;12865;51.934;10.330;2023-08-01T03:55:44;97232.13;;;17.23;100.00
24762;BME280;12865;51.934;10.330;2023-08-01T03:58:32;97222.97;;;17.24;100.00
24762;BME280;12865;51.934;10.330;2023-08-01T04:01:17;97215.84;;;17.30;100.00
24762;BME280;12865;51.934;10.330;2023-08-01T04:04:03;97224.50;;;17.32;100.00
24762;BME280;12865;51.934;10.330;2023-08-01T04:06:49;97218.31;;;17.32;100.00
24762;BME280;12865;51.934;10.330;2023-08-01T04:09:34;97220.44;;;17.30;100.00
24762;BME280;12865;51.934;10.330;2023-08-01T04:12:20;97229.56;;;17.28;100.00
24762;BME280;12865;51.934;10.330;2023-08-01T04:15:06;97242.69;;;17.37;100.00
24762;BME280;12865;51.934;10.330;2023-08-01T04:17:52;97230.81;;;17.26;100.00
24762;BME280;12865;51.934;10.330;2023-08-01T04:20:37;97231.19;;;17.30;100.00
24762;BME280;12865;51.934;10.330;2023-08-01T04:23:23;97236.09;;;17.33;100.00
24762;BME280;12865;51.934;10.330;2023-08-01T04:26:09;97226.97;;;17.34;100.00
24762;BME280;12865;51.934;10.330;2023-08-01T04:28:54;97224.06;;;17.35;100.00
24762;BME280;12865;51.934;10.330;2023-08-01T04:31:40;97214.72;;;17.49;100.00
24762;BME280;12865;51.934;10.330;2023-08-01T04:34:26;97223.13;;;17.53;100.00
24762;BME280;12865;51.934;10.330;2023-08-01T04:37:11;97214.94;;;17.48;100.00
24762;BME280;12865;51.934;10.330;2023-08-01T04:39:57;97215.41;;;17.45;100.00
24762;BME280;12865;51.934;10.330;2023-08-01T04:42:42;97203.00;;;17.44;100.00
24762;BME280;12865;51.934;10.330;2023-08-01T04:45:28;97208.38;;;17.44;100.00
24762;BME280;12865;51.934;10.330;2023-08-01T04:48:14;97201.84;;;17.51;100.00
24762;BME280;12865;51.934;10.330;2023-08-01T04:50:59;97193.59;;;17.46;100.00
24762;BME280;12865;51.934;10.330;2023-08-01T04:53:45;97204.66;;;17.45;100.00
24762;BME280;12865;51.934;10.330;2023-08-01T04:56:31;97198.19;;;17.46;100.00
24762;BME280;12865;51.934;10.330;2023-08-01T04:59:16;97204.66;;;17.45;100.00
24762;BME280;12865;51.934;10.330;2023-08-01T05:02:02;97205.47;;;17.57;100.00
24762;BME280;12865;51.934;10.330;2023-08-01T05:04:48;97214.75;;;17.61;100.00
24762;BME280;12865;51.934;10.330;2023-08-01T05:07:34;97216.38;;;17.62;100.00
24762;BME280;12865;51.934;10.330;2023-08-01T05:10:19;97216.69;;;17.54;100.00
24762;BME280;12865;51.934;10.330;2023-08-01T05:13:05;97229.13;;;17.55;100.00
24762;BME280;12865;51.934;10.330;2023-08-01T05:15:51;97225.38;;;17.56;100.00
24762;BME280;12865;51.934;10.330;2023-08-01T05:18:37;97220.72;;;17.63;100.00
24762;BME280;12865;51.934;10.330;2023-08-01T05:21:22;97217.44;;;17.61;100.00
24762;BME280;12865;51.934;10.330;2023-08-01T05:24:08;97200.22;;;17.62;100.00
24762;BME280;12865;51.934;10.330;2023-08-01T05:26:54;97206.22;;;17.64;100.00
24762;BME280;12865;51.934;10.330;2023-08-01T05:29:39;97202.53;;;17.58;100.00
24762;BME280;12865;51.934;10.330;2023-08-01T05:32:25;97212.03;;;17.61;100.00
24762;BME280;12865;51.934;10.330;2023-08-01T05:35:11;97211.81;;;17.62;100.00
24762;BME280;12865;51.934;10.330;2023-08-01T05:37:56;97222.81;;;17.61;100.00
24762;BME280;12865;51.934;10.330;2023-08-01T05:40:42;97225.53;;;17.61;100.00
24762;BME280;12865;51.934;10.330;2023-08-01T05:43:28;97235.69;;;17.59;100.00
24762;BME280;12865;51.934;10.330;2023-08-01T05:46:13;97241.00;;;17.65;100.00
24762;BME280;12865;51.934;10.330;2023-08-01T05:48:59;97243.00;;;17.70;100.00
24762;BME280;12865;51.934;10.330;2023-08-01T05:51:45;97246.41;;;17.65;100.00
24762;BME280;12865;51.934;10.330;2023-08-01T05:54:30;97256.19;;;17.60;100.00
24762;BME280;12865;51.934;10.330;2023-08-01T05:57:16;97273.97;;;17.49;100.00
24762;BME280;12865;51.934;10.330;2023-08-01T06:00:02;97276.72;;;17.31;100.00
24762;BME280;12865;51.934;10.330;2023-08-01T06:02:48;97278.41;;;17.02;100.00
24762;BME280;12865;51.934;10.330;2023-08-01T06:05:35;97265.63;;;16.98;100.00
24762;BME280;12865;51.934;10.330;2023-08-01T06:08:21;97271.25;;;16.78;100.00
24762;BME280;12865;51.934;10.330;2023-08-01T06:11:07;97270.41;;;16.66;100.00
24762;BME280;12865;51.934;10.330;2023-08-01T06:13:52;97264.47;;;16.57;100.00
24762;BME280;12865;51.934;10.330;2023-08-01T06:16:38;97260.81;;;16.52;100.00
24762;BME280;12865;51.934;10.330;2023-08-01T06:19:23;97272.41;;;16.52;100.00
24762;BME280;12865;51.934;10.330;2023-08-01T06:22:09;97261.16;;;16.55;100.00
24762;BME280;12865;51.934;10.330;2023-08-01T06:24:55;97252.59;;;16.65;100.00
24762;BME280;12865;51.934;10.330;2023-08-01T06:27:40;97256.63;;;16.74;100.00
24762;BME280;12865;51.934;10.330;2023-08-01T06:30:26;97262.97;;;16.79;100.00
24762;BME280;12865;51.934;10.330;2023-08-01T06:33:12;97261.31;;;16.78;100.00
24762;BME280;12865;51.934;10.330;2023-08-01T06:35:57;97271.97;;;16.73;100.00
24762;BME280;12865;51.934;10.330;2023-08-01T06:38:43;97272.47;;;16.82;100.00
24762;BME280;12865;51.934;10.330;2023-08-01T06:41:29;97273.03;;;16.84;100.00
24762;BME280;12865;51.934;10.330;2023-08-01T06:44:15;97288.09;;;16.73;100.00
24762;BME280;12865;51.934;10.330;2023-08-01T06:47:00;97298.47;;;16.88;100.00
24762;BME280;12865;51.934;10.330;2023-08-01T06:49:46;97296.91;;;16.80;100.00
24762;BME280;12865;51.934;10.330;2023-08-01T06:52:32;97300.72;;;16.73;100.00
24762;BME280;12865;51.934;10.330;2023-08-01T06:55:17;97302.38;;;16.74;100.00
24762;BME280;12865;51.934;10.330;2023-08-01T06:58:03;97297.44;;;16.71;100.00
24762;BME280;12865;51.934;10.330;2023-08-01T07:00:49;97306.03;;;16.79;100.00
24762;BME280;12865;51.934;10.330;2023-08-01T07:03:34;97296.91;;;16.80;100.00
24762;BME280;12865;51.934;10.330;2023-08-01T07:06:20;97307.38;;;16.70;100.00
24762;BME280;12865;51.934;10.330;2023-08-01T07:09:06;97315.22;;;16.72;100.00
24762;BME280;12865;51.934;10.330;2023-08-01T07:11:52;97310.97;;;16.64;100.00
24762;BME280;12865;51.934;10.330;2023-08-01T07:14:38;97312.97;;;16.69;100.00
24762;BME280;12865;51.934;10.330;2023-08-01T07:17:24;97323.09;;;16.73;100.00
24762;BME280;12865;51.934;10.330;2023-08-01T07:20:10;97326.81;;;16.72;100.00
24762;BME280;12865;51.934;10.330;2023-08-01T07:22:56;97325.09;;;16.78;100.00
24762;BME280;12865;51.934;10.330;2023-08-01T07:25:41;97319.28;;;16.81;100.00
24762;BME280;12865;51.934;10.330;2023-08-01T07:28:27;97330.56;;;16.71;100.00
24762;BME280;12865;51.934;10.330;2023-08-01T07:31:13;97329.28;;;16.74;100.00
24762;BME280;12865;51.934;10.330;2023-08-01T07:33:59;97333.69;;;16.68;100.00
24762;BME280;12865;51.934;10.330;2023-08-01T07:36:47;97345.59;;;16.61;100.00
24762;BME280;12865;51.934;10.330;2023-08-01T07:39:33;97340.22;;;16.54;100.00
24762;BME280;12865;51.934;10.330;2023-08-01T07:42:20;97356.19;;;16.31;100.00
24762;BME280;12865;51.934;10.330;2023-08-01T07:45:06;97344.63;;;16.30;100.00
24762;BME280;12865;51.934;10.330;2023-08-01T07:47:52;97342.28;;;16.34;100.00
24762;BME280;12865;51.934;10.330;2023-08-01T07:50:38;97354.69;;;16.35;100.00
24762;BME280;12865;51.934;10.330;2023-08-01T07:53:24;97356.34;;;16.36;100.00
24762;BME280;12865;51.934;10.330;2023-08-01T07:56:09;97357.66;;;16.27;100.00
24762;BME280;12865;51.934;10.330;2023-08-01T07:58:55;97371.66;;;16.35;100.00
24762;BME280;12865;51.934;10.330;2023-08-01T08:01:41;97369.94;;;16.41;100.00
24762;BME280;12865;51.934;10.330;2023-08-01T08:04:27;97374.63;;;16.52;100.00
24762;BME280;12865;51.934;10.330;2023-08-01T08:07:13;97381.13;;;16.63;100.00
24762;BME280;12865;51.934;10.330;2023-08-01T08:09:58;97384.34;;;16.53;100.00
24762;BME280;12865;51.934;10.330;2023-08-01T08:12:44;97382.56;;;16.65;100.00
24762;BME280;12865;51.934;10.330;2023-08-01T08:15:30;97386.19;;;16.53;100.00
24762;BME280;12865;51.934;10.330;2023-08-01T08:18:20;97386.75;;;16.61;100.00
24762;BME280;12865;51.934;10.330;2023-08-01T08:21:05;97382.44;;;16.60;100.00
24762;BME280;12865;51.934;10.330;2023-08-01T08:23:51;97380.72;;;16.66;100.00
24762;BME280;12865;51.934;10.330;2023-08-01T08:26:37;97389.38;;;16.68;100.00
24762;BME280;12865;51.934;10.330;2023-08-01T08:29:25;97387.88;;;16.72;100.00
24762;BME280;12865;51.934;10.330;2023-08-01T08:32:10;97394.16;;;16.84;100.00
24762;BME280;12865;51.934;10.330;2023-08-01T08:34:56;97389.06;;;16.76;100.00
24762;BME280;12865;51.934;10.330;2023-08-01T08:37:42;97396.72;;;16.79;100.00
24762;BME280;12865;51.934;10.330;2023-08-01T08:40:27;97402.84;;;16.86;100.00
24762;BME280;12865;51.934;10.330;2023-08-01T08:43:15;97403.19;;;16.89;100.00
24762;BME280;12865;51.934;10.330;2023-08-01T08:46:04;97405.13;;;16.82;100.00
24762;BME280;12865;51.934;10.330;2023-08-01T08:48:51;97408.50;;;16.78;100.00
24762;BME280;12865;51.934;10.330;2023-08-01T08:51:37;97409.78;;;16.94;100.00
24762;BME280;12865;51.934;10.330;2023-08-01T08:54:24;97412.34;;;16.88;100.00
24762;BME280;12865;51.934;10.330;2023-08-01T08:57:11;97414.78;;;16.90;100.00
24762;BME280;12865;51.934;10.330;2023-08-01T08:59:58;97406.34;;;16.86;100.00
24762;BME280;12865;51.934;10.330;2023-08-01T09:02:45;97404.78;;;16.97;100.00
24762;BME280;12865;51.934;10.330;2023-08-01T09:05:35;97407.25;;;16.99;100.00
24762;BME280;12865;51.934;10.330;2023-08-01T09:08:24;97404.28;;;16.88;100.00
24762;BME280;12865;51.934;10.330;2023-08-01T09:11:12;97396.69;;;16.97;100.00
24762;BME280;12865;51.934;10.330;2023-08-01T09:13:58;97386.66;;;17.22;100.00
24762;BME280;12865;51.934;10.330;2023-08-01T09:16:45;97400.06;;;17.59;100.00
24762;BME280;12865;51.934;10.330;2023-08-01T09:19:32;97395.88;;;17.93;100.00
24762;BME280;12865;51.934;10.330;2023-08-01T09:22:18;97394.81;;;17.94;100.00
24762;BME280;12865;51.934;10.330;2023-08-01T09:25:04;97395.06;;;18.16;100.00
24762;BME280;12865;51.934;10.330;2023-08-01T09:27:49;97393.78;;;18.07;100.00
24762;BME280;12865;51.934;10.330;2023-08-01T09:30:45;97392.84;;;18.13;100.00
24762;BME280;12865;51.934;10.330;2023-08-01T09:33:41;97402.97;;;18.29;100.00
24762;BME280;12865;51.934;10.330;2023-08-01T09:36:27;97392.28;;;18.34;100.00
24762;BME280;12865;51.934;10.330;2023-08-01T09:39:20;97382.91;;;18.71;100.00
24762;BME280;12865;51.934;10.330;2023-08-01T09:42:06;97388.91;;;18.62;100.00
24762;BME280;12865;51.934;10.330;2023-08-01T09:44:53;97396.19;;;18.61;100.00
24762;BME280;12865;51.934;10.330;2023-08-01T09:47:39;97393.72;;;18.60;100.00
24762;BME280;12865;51.934;10.330;2023-08-01T09:50:24;97399.06;;;18.25;100.00
24762;BME280;12865;51.934;10.330;2023-08-01T09:53:10;97399.91;;;18.37;100.00
24762;BME280;12865;51.934;10.330;2023-08-01T09:55:56;97399.31;;;18.35;100.00
24762;BME280;12865;51.934;10.330;2023-08-01T09:58:44;97403.41;;;18.14;100.00
24762;BME280;12865;51.934;10.330;2023-08-01T10:01:31;97401.97;;;18.12;100.00
24762;BME280;12865;51.934;10.330;2023-08-01T10:04:24;97406.47;;;18.41;100.00
24762;BME280;12865;51.934;10.330;2023-08-01T10:07:11;97391.69;;;18.78;100.00
24762;BME280;12865;51.934;10.330;2023-08-01T10:09:59;97397.72;;;19.20;100.00
24762;BME280;12865;51.934;10.330;2023-08-01T10:12:45;97396.03;;;19.71;100.00
24762;BME280;12865;51.934;10.330;2023-08-01T10:15:34;97400.03;;;19.97;100.00
24762;BME280;12865;51.934;10.330;2023-08-01T10:18:19;97403.81;;;20.13;100.00
24762;BME280;12865;51.934;10.330;2023-08-01T10:21:11;97407.72;;;20.05;99.63
24762;BME280;12865;51.934;10.330;2023-08-01T10:23:58;97402.28;;;20.33;97.15
24762;BME280;12865;51.934;10.330;2023-08-01T10:26:45;97406.66;;;20.06;98.51
24762;BME280;12865;51.934;10.330;2023-08-01T10:29:36;97402.53;;;20.32;99.21
24762;BME280;12865;51.934;10.330;2023-08-01T10:32:31;97407.28;;;20.42;95.15
24762;BME280;12865;51.934;10.330;2023-08-01T10:35:18;97410.41;;;20.67;95.12
24762;BME280;12865;51.934;10.330;2023-08-01T10:38:08;97405.81;;;20.67;94.75
24762;BME280;12865;51.934;10.330;2023-08-01T10:40:54;97412.06;;;20.90;94.34
24762;BME280;12865;51.934;10.330;2023-08-01T10:43:40;97420.81;;;20.42;93.95
24762;BME280;12865;51.934;10.330;2023-08-01T10:46:27;97411.13;;;20.29;94.73
24762;BME280;12865;51.934;10.330;2023-08-01T10:49:13;97418.13;;;20.97;94.10
24762;BME280;12865;51.934;10.330;2023-08-01T10:51:58;97424.75;;;21.06;89.75
24762;BME280;12865;51.934;10.330;2023-08-01T10:54:44;97417.69;;;21.05;87.35
24762;BME280;12865;51.934;10.330;2023-08-01T10:57:31;97420.22;;;20.23;92.43
24762;BME280;12865;51.934;10.330;2023-08-01T11:00:17;97433.44;;;19.63;97.04
24762;BME280;12865;51.934;10.330;2023-08-01T11:03:05;97444.03;;;19.64;97.04
24762;BME280;12865;51.934;10.330;2023-08-01T11:05:57;97440.31;;;19.42;97.47
24762;BME280;12865;51.934;10.330;2023-08-01T11:08:43;97432.91;;;19.49;99.56
24762;BME280;12865;51.934;10.330;2023-08-01T11:11:29;97428.72;;;19.70;100.00
24762;BME280;12865;51.934;10.330;2023-08-01T11:14:15;97415.72;;;19.67;96.76
24762;BME280;12865;51.934;10.330;2023-08-01T11:17:01;97430.66;;;19.86;97.29
24762;BME280;12865;51.934;10.330;2023-08-01T11:19:47;97430.38;;;20.16;99.94
24762;BME280;12865;51.934;10.330;2023-08-01T11:22:36;97439.34;;;19.59;96.43
24762;BME280;12865;51.934;10.330;2023-08-01T11:25:40;97427.03;;;19.80;100.00
24762;BME280;12865;51.934;10.330;2023-08-01T11:30:54;97426.22;;;20.42;100.00
24762;BME280;12865;51.934;10.330;2023-08-01T11:33:39;97439.94;;;20.52;96.17
24762;BME280;12865;51.934;10.330;2023-08-01T11:36:27;97435.19;;;20.59;95.51
24762;BME280;12865;51.934;10.330;2023-08-01T11:39:14;97432.81;;;21.01;93.28
24762;BME280;12865;51.934;10.330;2023-08-01T11:42:00;97428.19;;;21.18;91.51
24762;BME280;12865;51.934;10.330;2023-08-01T11:44:46;97431.88;;;21.50;89.06
24762;BME280;12865;51.934;10.330;2023-08-01T11:47:32;97437.09;;;21.57;86.54
24762;BME280;12865;51.934;10.330;2023-08-01T11:50:22;97435.47;;;21.34;87.06
24762;BME280;12865;51.934;10.330;2023-08-01T11:53:29;97432.50;;;20.97;88.88
24762;BME280;12865;51.934;10.330;2023-08-01T11:56:21;97436.44;;;20.90;92.28
24762;BME280;12865;51.934;10.330;2023-08-01T11:59:10;97440.56;;;20.92;91.63
24762;BME280;12865;51.934;10.330;2023-08-01T12:01:56;97448.84;;;20.86;91.58
24762;BME280;12865;51.934;10.330;2023-08-01T12:04:45;97445.63;;;20.89;91.55
24762;BME280;12865;51.934;10.330;2023-08-01T12:07:31;97448.19;;;20.95;90.06
24762;BME280;12865;51.934;10.330;2023-08-01T12:10:17;97443.31;;;21.14;91.24
24762;BME280;12865;51.934;10.330;2023-08-01T12:13:03;97448.03;;;21.24;87.47
24762;BME280;12865;51.934;10.330;2023-08-01T12:15:50;97446.94;;;21.63;86.22
24762;BME280;12865;51.934;10.330;2023-08-01T12:18:38;97462.50;;;22.21;84.02
24762;BME280;12865;51.934;10.330;2023-08-01T12:21:24;97446.03;;;22.33;75.22
24762;BME280;12865;51.934;10.330;2023-08-01T12:24:10;97454.09;;;22.23;78.08
24762;BME280;12865;51.934;10.330;2023-08-01T12:26:56;97466.00;;;21.95;78.40
24762;BME280;12865;51.934;10.330;2023-08-01T12:29:42;97447.88;;;21.52;76.78
24762;BME280;12865;51.934;10.330;2023-08-01T12:32:28;97457.44;;;21.81;80.44
24762;BME280;12865;51.934;10.330;2023-08-01T12:35:13;97460.19;;;22.08;77.97
24762;BME280;12865;51.934;10.330;2023-08-01T12:37:59;97465.00;;;22.28;77.79
24762;BME280;12865;51.934;10.330;2023-08-01T12:40:45;97451.97;;;21.98;78.97
24762;BME280;12865;51.934;10.330;2023-08-01T12:43:32;97456.50;;;22.19;76.63
24762;BME280;12865;51.934;10.330;2023-08-01T12:46:17;97461.28;;;21.85;79.18
24762;BME280;12865;51.934;10.330;2023-08-01T12:49:03;97459.72;;;21.46;77.88
24762;BME280;12865;51.934;10.330;2023-08-01T12:51:49;97467.78;;;21.19;81.06
24762;BME280;12865;51.934;10.330;2023-08-01T12:54:34;97480.22;;;21.37;80.92
24762;BME280;12865;51.934;10.330;2023-08-01T12:57:20;97481.72;;;21.28;81.60
24762;BME280;12865;51.934;10.330;2023-08-01T13:00:06;97495.06;;;20.79;84.53
24762;BME280;12865;51.934;10.330;2023-08-01T13:02:52;97498.19;;;20.71;85.48
24762;BME280;12865;51.934;10.330;2023-08-01T13:05:40;97498.13;;;20.66;86.51
24762;BME280;12865;51.934;10.330;2023-08-01T13:08:26;97506.72;;;20.18;87.24
24762;BME280;12865;51.934;10.330;2023-08-01T13:11:14;97537.97;;;19.57;91.76
24762;BME280;12865;51.934;10.330;2023-08-01T13:14:00;97534.81;;;19.25;97.50
24762;BME280;12865;51.934;10.330;2023-08-01T13:16:46;97540.56;;;18.70;100.00
24762;BME280;12865;51.934;10.330;2023-08-01T13:19:32;97535.59;;;18.26;100.00
24762;BME280;12865;51.934;10.330;2023-08-01T13:22:17;97563.84;;;17.75;100.00
24762;BME280;12865;51.934;10.330;2023-08-01T13:25:03;97579.97;;;17.39;100.00
24762;BME280;12865;51.934;10.330;2023-08-01T13:27:50;97559.59;;;17.06;100.00
24762;BME280;12865;51.934;10.330;2023-08-01T13:30:35;97562.28;;;17.06;100.00
24762;BME280;12865;51.934;10.330;2023-08-01T13:33:21;97547.91;;;16.94;100.00
24762;BME280;12865;51.934;10.330;2023-08-01T13:36:07;97541.25;;;16.72;100.00
24762;BME280;12865;51.934;10.330;2023-08-01T13:38:52;97534.69;;;16.68;100.00
24762;BME280;12865;51.934;10.330;2023-08-01T13:41:38;97520.50;;;16.79;100.00
24762;BME280;12865;51.934;10.330;2023-08-01T13:44:24;97515.53;;;16.51;100.00
24762;BME280;12865;51.934;10.330;2023-08-01T13:47:10;97526.25;;;16.58;100.00
24762;BME280;12865;51.934;10.330;2023-08-01T13:49:56;97529.13;;;16.63;100.00
24762;BME280;12865;51.934;10.330;2023-08-01T13:52:42;97544.59;;;16.92;100.00
24762;BME280;12865;51.934;10.330;2023-08-01T13:55:28;97542.13;;;17.34;100.00
24762;BME280;12865;51.934;10.330;2023-08-01T13:58:13;97544.53;;;17.78;100.00
24762;BME280;12865;51.934;10.330;2023-08-01T14:01:03;97549.19;;;18.19;100.00
24762;BME280;12865;51.934;10.330;2023-08-01T14:03:49;97553.19;;;18.58;100.00
24762;BME280;12865;51.934;10.330;2023-08-01T14:06:35;97557.81;;;18.51;100.00
24762;BME280;12865;51.934;10.330;2023-08-01T14:09:20;97556.31;;;18.85;100.00
24762;BME280;12865;51.934;10.330;2023-08-01T14:12:07;97554.53;;;19.14;100.00
24762;BME280;12865;51.934;10.330;2023-08-01T14:14:52;97560.66;;;19.21;100.00
24762;BME280;12865;51.934;10.330;2023-08-01T14:17:38;97559.38;;;19.47;100.00
24762;BME280;12865;51.934;10.330;2023-08-01T14:20:24;97557.94;;;19.44;100.00
24762;BME280;12865;51.934;10.330;2023-08-01T14:23:09;97560.66;;;19.21;100.00